createdAt,value
2023-03-05T00:01:02.773Z,14.47
2023-03-05T00:03:29.171Z,14.43
2023-03-05T00:05:55.620Z,14.40
2023-03-05T00:08:21.998Z,14.42
2023-03-05T00:10:48.470Z,14.40
2023-03-05T00:13:15.627Z,14.41
2023-03-05T00:15:42.023Z,14.39
2023-03-05T00:18:08.817Z,14.39
2023-03-05T00:20:35.594Z,14.38
2023-03-05T00:23:02.118Z,14.35
2023-03-05T00:25:28.523Z,14.35
2023-03-05T00:27:54.872Z,14.38
2023-03-05T00:30:21.280Z,14.30
2023-03-05T00:32:47.652Z,14.34
2023-03-05T00:35:14.778Z,14.37
2023-03-05T00:37:41.179Z,14.33
2023-03-05T00:40:07.671Z,14.33
2023-03-05T00:42:34.323Z,14.32
2023-03-05T00:45:00.728Z,14.35
2023-03-05T00:47:27.468Z,14.31
2023-03-05T00:49:53.761Z,14.31
2023-03-05T00:52:20.127Z,14.28
2023-03-05T00:54:46.849Z,14.28
2023-03-05T00:57:13.127Z,14.29
2023-03-05T00:59:39.852Z,14.30
2023-03-05T01:02:06.361Z,14.23
2023-03-05T01:04:32.794Z,14.26
2023-03-05T01:06:59.856Z,14.23
2023-03-05T01:09:26.253Z,14.24
2023-03-05T01:11:52.982Z,14.25
2023-03-05T01:14:19.590Z,14.24
2023-03-05T01:16:45.967Z,14.21
2023-03-05T01:19:12.542Z,14.21
2023-03-05T01:21:38.871Z,14.21
2023-03-05T01:24:05.219Z,14.21
2023-03-05T01:26:31.925Z,14.23
2023-03-05T01:28:58.380Z,14.22
2023-03-05T01:31:24.772Z,14.20
2023-03-05T01:33:51.215Z,14.18
2023-03-05T01:36:17.618Z,14.16
2023-03-05T01:38:44.123Z,14.14
2023-03-05T01:41:10.479Z,14.14
2023-03-05T01:43:36.832Z,14.15
2023-03-05T01:46:03.352Z,14.16
2023-03-05T01:48:29.790Z,14.15
2023-03-05T01:50:56.251Z,14.12
2023-03-05T01:53:22.679Z,14.13
2023-03-05T01:55:49.315Z,14.10
2023-03-05T01:58:15.925Z,14.09
2023-03-05T02:00:42.290Z,14.12
2023-03-05T02:03:10.133Z,14.11
2023-03-05T02:05:36.592Z,14.08
2023-03-05T02:08:03.474Z,14.08
2023-03-05T02:10:29.879Z,14.09
2023-03-05T02:12:56.744Z,14.07
2023-03-05T02:15:23.164Z,14.09
2023-03-05T02:17:50.318Z,14.08
2023-03-05T02:20:17.198Z,14.08
2023-03-05T02:22:43.637Z,14.02
2023-03-05T02:25:10.155Z,14.03
2023-03-05T02:27:36.813Z,14.04
2023-03-05T02:30:03.457Z,14.00
2023-03-05T02:32:29.910Z,13.99
2023-03-05T02:34:56.323Z,14.03
2023-03-05T02:37:22.804Z,14.02
2023-03-05T02:39:49.382Z,14.01
2023-03-05T02:42:15.707Z,13.99
2023-03-05T02:44:42.399Z,14.00
2023-03-05T02:47:08.740Z,13.98
2023-03-05T02:49:35.167Z,13.96
2023-03-05T02:52:01.638Z,13.96
2023-03-05T02:54:28.050Z,13.97
2023-03-05T02:56:54.393Z,13.95
2023-03-05T02:59:20.738Z,13.97
2023-03-05T03:01:47.074Z,13.95
2023-03-05T03:04:13.488Z,13.96
2023-03-05T03:06:39.994Z,13.94
2023-03-05T03:09:06.694Z,13.95
2023-03-05T03:11:33.083Z,13.93
2023-03-05T03:13:59.750Z,13.90
2023-03-05T03:16:26.258Z,13.91
2023-03-05T03:18:53.118Z,13.94
2023-03-05T03:21:19.708Z,13.87
2023-03-05T03:23:46.320Z,13.88
2023-03-05T03:26:12.751Z,13.89
2023-03-05T03:28:39.239Z,13.88
2023-03-05T03:31:05.637Z,13.87
2023-03-05T03:33:32.322Z,13.88
2023-03-05T03:35:59.243Z,13.87
2023-03-05T03:38:25.824Z,13.84
2023-03-05T03:40:52.191Z,13.84
2023-03-05T03:43:18.571Z,13.83
2023-03-05T03:45:45.054Z,13.80
2023-03-05T03:48:11.540Z,13.83
2023-03-05T03:50:37.876Z,13.82
2023-03-05T03:53:04.427Z,13.83
2023-03-05T03:55:30.945Z,13.80
2023-03-05T03:57:57.610Z,13.82
2023-03-05T04:00:24.027Z,13.81
2023-03-05T04:02:50.642Z,13.84
2023-03-05T04:05:18.856Z,13.80
2023-03-05T04:07:46.565Z,13.80
2023-03-05T04:10:13.686Z,13.78
2023-03-05T04:12:41.457Z,13.78
2023-03-05T04:15:08.450Z,13.75
2023-03-05T04:17:35.287Z,13.75
2023-03-05T04:20:02.574Z,13.76
2023-03-05T04:22:29.034Z,13.75
2023-03-05T04:24:55.851Z,13.76
2023-03-05T04:27:22.522Z,13.72
2023-03-05T04:29:48.851Z,13.72
2023-03-05T04:32:15.248Z,13.73
2023-03-05T04:34:41.623Z,13.71
2023-03-05T04:37:07.988Z,13.70
2023-03-05T04:39:34.406Z,13.70
2023-03-05T04:42:00.757Z,13.71
2023-03-05T04:44:27.078Z,13.71
2023-03-05T04:46:53.571Z,13.70
2023-03-05T04:49:20.043Z,13.69
2023-03-05T04:51:46.715Z,13.69
2023-03-05T04:54:13.111Z,13.69
2023-03-05T04:56:39.853Z,13.68
2023-03-05T04:59:06.483Z,13.68
2023-03-05T05:01:32.794Z,13.67
2023-03-05T05:03:59.812Z,13.67
2023-03-05T05:06:26.208Z,13.65
2023-03-05T05:08:52.605Z,13.65
2023-03-05T05:11:19.295Z,13.63
2023-03-05T05:13:45.663Z,13.63
2023-03-05T05:16:12.102Z,13.61
2023-03-05T05:18:38.492Z,13.60
2023-03-05T05:21:04.823Z,13.62
2023-03-05T05:23:31.345Z,13.59
2023-03-05T05:25:58.298Z,13.60
2023-03-05T05:28:25.381Z,13.58
2023-03-05T05:30:51.769Z,13.60
2023-03-05T05:33:18.203Z,13.59
2023-03-05T05:35:44.625Z,13.58
2023-03-05T05:38:11.046Z,13.57
2023-03-05T05:40:37.826Z,13.57
2023-03-05T05:43:04.301Z,13.59
2023-03-05T05:45:31.246Z,13.57
2023-03-05T05:47:57.656Z,13.56
2023-03-05T05:50:24.026Z,13.57
2023-03-05T05:52:50.386Z,13.54
2023-03-05T05:55:17.140Z,13.52
2023-03-05T05:57:43.531Z,13.55
2023-03-05T06:00:09.889Z,13.53
2023-03-05T06:02:37.088Z,13.52
2023-03-05T06:05:03.630Z,13.54
2023-03-05T06:07:30.004Z,13.53
2023-03-05T06:09:57.006Z,13.51
2023-03-05T06:12:23.348Z,13.51
2023-03-05T06:14:49.711Z,13.52
2023-03-05T06:17:25.164Z,13.50
2023-03-05T06:19:56.529Z,13.50
2023-03-05T06:22:23.728Z,13.50
2023-03-05T06:24:50.135Z,13.49
2023-03-05T06:27:16.462Z,13.49
2023-03-05T06:29:43.114Z,13.49
2023-03-05T06:32:09.457Z,13.47
2023-03-05T06:34:35.850Z,13.46
2023-03-05T06:37:02.283Z,13.48
2023-03-05T06:39:28.653Z,13.45
2023-03-05T06:41:55.669Z,13.45
2023-03-05T06:44:22.310Z,13.44
2023-03-05T06:46:49.286Z,13.40
2023-03-05T06:49:15.749Z,13.42
2023-03-05T06:51:42.355Z,13.40
2023-03-05T06:54:08.744Z,13.41
2023-03-05T06:56:35.104Z,13.40
2023-03-05T06:59:01.380Z,13.37
2023-03-05T07:01:27.776Z,13.40
2023-03-05T07:03:54.698Z,13.40
2023-03-05T07:06:21.089Z,13.38
2023-03-05T07:08:47.949Z,13.36
2023-03-05T07:11:14.336Z,13.35
2023-03-05T07:13:41.179Z,13.36
2023-03-05T07:16:07.878Z,13.33
2023-03-05T07:18:34.490Z,13.35
2023-03-05T07:21:00.833Z,13.32
2023-03-05T07:23:27.204Z,13.34
2023-03-05T07:25:53.495Z,13.35
2023-03-05T07:28:19.817Z,13.33
2023-03-05T07:30:46.540Z,13.32
2023-03-05T07:33:13.531Z,13.32
2023-03-05T07:35:39.949Z,13.34
2023-03-05T07:38:06.410Z,13.32
2023-03-05T07:40:33.003Z,13.32
2023-03-05T07:42:59.399Z,13.33
2023-03-05T07:45:25.757Z,13.31
2023-03-05T07:47:52.654Z,13.30
2023-03-05T07:50:19.593Z,13.29
2023-03-05T07:52:46.363Z,13.32
2023-03-05T07:55:13.471Z,13.30
2023-03-05T07:57:39.890Z,13.29
2023-03-05T08:00:06.222Z,13.29
2023-03-05T08:02:32.697Z,13.30
2023-03-05T08:04:59.428Z,13.26
2023-03-05T08:07:26.099Z,13.25
2023-03-05T08:09:53.033Z,13.28
2023-03-05T08:12:19.996Z,13.25
2023-03-05T08:14:46.953Z,13.26
2023-03-05T08:17:13.434Z,13.24
2023-03-05T08:19:40.440Z,13.22
2023-03-05T08:22:06.737Z,13.25
2023-03-05T08:24:33.497Z,13.24
2023-03-05T08:27:00.186Z,13.24
2023-03-05T08:29:26.938Z,13.25
2023-03-05T08:31:53.774Z,13.26
2023-03-05T08:34:20.265Z,13.24
2023-03-05T08:36:46.656Z,13.24
2023-03-05T08:39:13.097Z,13.23
2023-03-05T08:41:39.517Z,13.22
2023-03-05T08:44:05.950Z,13.19
2023-03-05T08:46:32.355Z,13.20
2023-03-05T08:48:58.765Z,13.20
2023-03-05T08:51:25.458Z,13.21
2023-03-05T08:53:52.166Z,13.21
2023-03-05T08:56:18.531Z,13.20
2023-03-05T08:58:45.520Z,13.18
2023-03-05T09:01:11.825Z,13.19
2023-03-05T09:03:38.340Z,13.18
2023-03-05T09:06:05.109Z,13.18
2023-03-05T09:08:31.526Z,13.18
2023-03-05T09:10:58.236Z,13.19
2023-03-05T09:13:24.635Z,13.15
2023-03-05T09:15:51.499Z,13.17
2023-03-05T09:18:17.879Z,13.18
2023-03-05T09:20:44.505Z,13.16
2023-03-05T09:23:11.661Z,13.16
2023-03-05T09:25:37.959Z,13.15
2023-03-05T09:28:04.554Z,13.15
2023-03-05T09:30:30.939Z,13.16
2023-03-05T09:32:57.598Z,13.14
2023-03-05T09:35:24.077Z,13.13
2023-03-05T09:37:50.705Z,13.14
2023-03-05T09:40:17.499Z,13.14
2023-03-05T09:42:44.174Z,13.13
2023-03-05T09:45:10.894Z,13.14
2023-03-05T09:47:37.323Z,13.12
2023-03-05T09:50:03.826Z,13.14
2023-03-05T09:52:30.217Z,13.12
2023-03-05T09:54:57.437Z,13.10
2023-03-05T09:57:23.818Z,13.07
2023-03-05T09:59:50.386Z,13.08
2023-03-05T10:02:16.897Z,13.09
2023-03-05T10:04:43.620Z,13.10
2023-03-05T10:07:10.002Z,13.16
2023-03-05T10:09:37.029Z,13.20
2023-03-05T10:12:03.547Z,13.26
2023-03-05T10:14:30.354Z,13.32
2023-03-05T10:16:57.258Z,13.38
2023-03-05T10:19:24.137Z,13.46
2023-03-05T10:21:50.897Z,13.53
2023-03-05T10:24:17.247Z,13.60
2023-03-05T10:26:43.775Z,13.70
2023-03-05T10:29:10.121Z,13.79
2023-03-05T10:31:37.462Z,13.91
2023-03-05T10:34:05.057Z,14.01
2023-03-05T10:36:32.637Z,14.13
2023-03-05T10:38:59.428Z,14.26
2023-03-05T10:41:28.378Z,14.38
2023-03-05T10:43:55.707Z,14.50
2023-03-05T10:46:22.491Z,14.63
2023-03-05T10:48:49.550Z,14.77
2023-03-05T10:51:16.628Z,14.90
2023-03-05T10:53:43.628Z,15.00
2023-03-05T10:56:10.232Z,15.10
2023-03-05T10:58:38.077Z,15.18
2023-03-05T11:01:05.705Z,15.28
2023-03-05T11:03:32.649Z,15.39
2023-03-05T11:05:59.757Z,15.50
2023-03-05T11:08:27.560Z,15.57
2023-03-05T11:10:54.038Z,15.68
2023-03-05T11:13:21.273Z,15.74
2023-03-05T11:15:48.536Z,15.82
2023-03-05T11:18:16.115Z,15.84
2023-03-05T11:20:43.382Z,15.88
2023-03-05T11:23:09.866Z,15.97
2023-03-05T11:25:38.052Z,16.06
2023-03-05T11:28:04.736Z,16.12
2023-03-05T11:30:32.562Z,16.18
2023-03-05T11:33:00.754Z,16.24
2023-03-05T11:35:28.109Z,16.31
2023-03-05T11:37:54.686Z,16.36
2023-03-05T11:40:21.107Z,16.42
2023-03-05T11:42:48.245Z,16.45
2023-03-05T11:45:14.821Z,16.51
2023-03-05T11:47:41.830Z,16.54
2023-03-05T11:50:08.217Z,16.59
2023-03-05T11:52:34.691Z,16.59
2023-03-05T11:55:01.796Z,16.64
2023-03-05T11:57:28.517Z,16.69
2023-03-05T11:59:54.837Z,16.67
2023-03-05T12:02:21.212Z,16.73
2023-03-05T12:04:47.805Z,16.72
2023-03-05T12:07:14.597Z,16.70
2023-03-05T12:09:41.032Z,16.73
2023-03-05T12:12:07.479Z,16.77
2023-03-05T12:14:33.926Z,16.82
2023-03-05T12:17:00.269Z,16.83
2023-03-05T12:19:26.780Z,16.89
2023-03-05T12:21:53.279Z,16.93
2023-03-05T12:24:19.913Z,16.99
2023-03-05T12:26:46.563Z,17.02
2023-03-05T12:29:13.369Z,17.08
2023-03-05T12:31:39.770Z,17.13
2023-03-05T12:34:06.429Z,17.20
2023-03-05T12:36:32.764Z,17.27
2023-03-05T12:38:59.515Z,17.34
2023-03-05T12:41:28.075Z,17.41
2023-03-05T12:43:55.547Z,17.48
2023-03-05T12:46:21.956Z,17.56
2023-03-05T12:48:48.469Z,17.62
2023-03-05T12:51:14.889Z,17.69
2023-03-05T12:53:41.597Z,17.75
2023-03-05T12:56:07.990Z,17.82
2023-03-05T12:58:34.906Z,17.90
2023-03-05T13:01:01.308Z,17.96
2023-03-05T13:03:27.779Z,18.03
2023-03-05T13:05:54.675Z,18.07
2023-03-05T13:08:21.089Z,18.14
2023-03-05T13:10:47.432Z,18.14
2023-03-05T13:13:14.229Z,18.18
2023-03-05T13:15:40.562Z,18.22
2023-03-05T13:18:06.906Z,18.26
2023-03-05T13:20:33.240Z,18.30
2023-03-05T13:23:00.380Z,18.33
2023-03-05T13:25:26.934Z,18.37
2023-03-05T13:27:53.315Z,18.42
2023-03-05T13:30:19.848Z,18.44
2023-03-05T13:32:46.523Z,18.48
2023-03-05T13:35:12.940Z,18.52
2023-03-05T13:37:39.714Z,18.54
2023-03-05T13:40:06.256Z,18.54
2023-03-05T13:42:32.673Z,18.58
2023-03-05T13:44:59.038Z,18.61
2023-03-05T13:47:25.351Z,18.65
2023-03-05T13:49:51.798Z,18.67
2023-03-05T13:52:18.097Z,18.68
2023-03-05T13:54:44.739Z,18.69
2023-03-05T13:57:11.156Z,18.70
2023-03-05T13:59:37.887Z,18.73
2023-03-05T14:02:04.274Z,18.74
2023-03-05T14:04:31.166Z,18.79
2023-03-05T14:06:57.494Z,18.81
2023-03-05T14:09:23.923Z,18.81
2023-03-05T14:11:50.824Z,18.76
2023-03-05T14:14:17.956Z,18.76
2023-03-05T14:16:44.323Z,18.79
2023-03-05T14:19:11.414Z,18.82
2023-03-05T14:21:37.804Z,18.84
2023-03-05T14:24:04.225Z,18.87
2023-03-05T14:26:30.813Z,18.90
2023-03-05T14:28:57.544Z,18.94
2023-03-05T14:31:24.157Z,18.96
2023-03-05T14:33:50.621Z,18.98
2023-03-05T14:36:17.556Z,19.00
2023-03-05T14:38:43.969Z,19.00
2023-03-05T14:41:10.821Z,19.03
2023-03-05T14:43:37.184Z,19.04
2023-03-05T14:46:03.620Z,19.07
2023-03-05T14:48:30.078Z,19.08
2023-03-05T14:50:57.293Z,19.10
2023-03-05T14:53:24.813Z,19.12
2023-03-05T14:55:51.991Z,19.11
2023-03-05T14:58:19.098Z,19.14
2023-03-05T15:00:45.742Z,19.18
2023-03-05T15:03:12.245Z,19.17
2023-03-05T15:05:40.047Z,19.20
2023-03-05T15:08:06.865Z,19.21
2023-03-05T15:10:34.239Z,19.26
2023-03-05T15:13:02.147Z,19.32
2023-03-05T15:15:29.907Z,19.36
2023-03-05T15:17:57.414Z,19.38
2023-03-05T15:20:24.611Z,19.40
2023-03-05T15:22:53.193Z,19.44
2023-03-05T15:25:24.120Z,19.48
2023-03-05T15:27:51.849Z,19.51
2023-03-05T15:30:19.609Z,19.52
2023-03-05T15:32:46.176Z,19.55
2023-03-05T15:35:12.916Z,19.60
2023-03-05T15:37:39.596Z,19.61
2023-03-05T15:40:06.301Z,19.64
2023-03-05T15:42:32.663Z,19.66
2023-03-05T15:44:59.091Z,19.68
2023-03-05T15:47:25.457Z,19.69
2023-03-05T15:49:52.241Z,19.69
2023-03-05T15:52:18.535Z,19.73
2023-03-05T15:54:45.415Z,19.75
2023-03-05T15:57:11.846Z,19.67
2023-03-05T15:59:38.330Z,19.53
2023-03-05T16:02:04.786Z,19.35
2023-03-05T16:04:31.240Z,19.22
2023-03-05T16:06:57.709Z,19.10
2023-03-05T16:09:25.442Z,19.01
2023-03-05T16:11:51.815Z,18.95
2023-03-05T16:14:18.396Z,18.78
2023-03-05T16:16:45.157Z,18.71
2023-03-05T16:19:11.482Z,18.71
2023-03-05T16:21:37.869Z,18.72
2023-03-05T16:24:04.217Z,18.70
2023-03-05T16:26:30.744Z,18.69
2023-03-05T16:28:57.330Z,18.67
2023-03-05T16:31:24.619Z,18.67
2023-03-05T16:33:51.666Z,18.64
2023-03-05T16:36:18.951Z,18.64
2023-03-05T16:38:46.149Z,18.61
2023-03-05T16:41:12.551Z,18.58
2023-03-05T16:43:39.083Z,18.55
2023-03-05T16:46:05.575Z,18.56
2023-03-05T16:48:31.894Z,18.53
2023-03-05T16:50:58.311Z,18.49
2023-03-05T16:53:24.781Z,18.47
2023-03-05T16:55:51.204Z,18.42
2023-03-05T16:58:18.086Z,18.38
2023-03-05T17:00:44.505Z,18.38
2023-03-05T17:03:11.531Z,18.33
2023-03-05T17:05:37.902Z,18.33
2023-03-05T17:08:04.952Z,18.33
2023-03-05T17:10:31.380Z,18.26
2023-03-05T17:12:57.777Z,18.26
2023-03-05T17:15:24.135Z,18.19
2023-03-05T17:17:50.731Z,18.17
2023-03-05T17:20:17.175Z,18.14
2023-03-05T17:22:43.971Z,18.10
2023-03-05T17:25:10.443Z,18.09
2023-03-05T17:27:37.410Z,18.04
2023-03-05T17:30:03.915Z,18.01
2023-03-05T17:32:30.413Z,17.96
2023-03-05T17:34:57.420Z,17.97
2023-03-05T17:37:24.326Z,17.86
2023-03-05T17:39:51.152Z,17.92
2023-03-05T17:42:17.998Z,17.87
2023-03-05T17:44:45.725Z,17.85
2023-03-05T17:47:12.097Z,17.80
2023-03-05T17:49:39.074Z,17.82
2023-03-05T17:52:05.700Z,17.77
2023-03-05T17:54:32.114Z,17.76
2023-03-05T17:56:58.665Z,17.71
2023-03-05T17:59:25.037Z,17.69
2023-03-05T18:01:51.741Z,17.63
2023-03-05T18:04:18.106Z,17.63
2023-03-05T18:06:45.731Z,17.58
2023-03-05T18:09:12.962Z,17.55
2023-03-05T18:11:39.294Z,17.52
2023-03-05T18:14:06.036Z,17.46
2023-03-05T18:16:32.485Z,17.49
2023-03-05T18:18:59.424Z,17.41
2023-03-05T18:21:25.851Z,17.43
2023-03-05T18:23:52.443Z,17.41
2023-03-05T18:26:19.671Z,17.38
2023-03-05T18:28:47.117Z,17.29
2023-03-05T18:31:13.618Z,17.30
2023-03-05T18:33:40.222Z,17.26
2023-03-05T18:36:06.571Z,17.27
2023-03-05T18:38:33.007Z,17.23
2023-03-05T18:40:59.777Z,17.20
2023-03-05T18:43:26.377Z,17.18
2023-03-05T18:45:52.814Z,17.14
2023-03-05T18:48:19.891Z,17.17
2023-03-05T18:50:47.039Z,17.11
2023-03-05T18:53:13.614Z,17.06
2023-03-05T18:55:40.114Z,17.05
2023-03-05T18:58:06.748Z,17.04
2023-03-05T19:00:33.277Z,17.07
2023-03-05T19:02:59.825Z,17.00
2023-03-05T19:05:27.136Z,16.92
2023-03-05T19:07:54.369Z,16.94
2023-03-05T19:10:21.719Z,16.95
2023-03-05T19:12:48.641Z,16.98
2023-03-05T19:15:14.980Z,16.92
2023-03-05T19:17:41.811Z,16.90
2023-03-05T19:20:08.240Z,16.92
2023-03-05T19:22:35.010Z,16.92
2023-03-05T19:25:01.633Z,16.87
2023-03-05T19:27:28.323Z,16.79
2023-03-05T19:29:56.150Z,16.79
2023-03-05T19:32:23.361Z,16.81
2023-03-05T19:34:49.895Z,16.74
2023-03-05T19:37:17.161Z,16.77
2023-03-05T19:39:43.604Z,16.73
2023-03-05T19:42:09.977Z,16.69
2023-03-05T19:44:36.820Z,16.61
2023-03-05T19:47:03.283Z,16.68
2023-03-05T19:49:30.301Z,16.61
2023-03-05T19:51:57.017Z,16.66
2023-03-05T19:54:23.659Z,16.56
2023-03-05T19:56:52.337Z,16.62
2023-03-05T19:59:20.268Z,16.64
2023-03-05T20:01:46.781Z,16.57
2023-03-05T20:04:13.224Z,16.57
2023-03-05T20:06:39.600Z,16.61
2023-03-05T20:09:07.926Z,16.53
2023-03-05T20:11:34.461Z,16.54
2023-03-05T20:14:01.770Z,16.51
2023-03-05T20:16:28.734Z,16.50
2023-03-05T20:18:55.349Z,16.45
2023-03-05T20:21:21.893Z,16.46
2023-03-05T20:23:48.279Z,16.46
2023-03-05T20:26:14.801Z,16.44
2023-03-05T20:28:41.448Z,16.42
2023-03-05T20:31:08.031Z,16.48
2023-03-05T20:33:34.387Z,16.41
2023-03-05T20:36:01.025Z,16.36
2023-03-05T20:38:28.006Z,16.38
2023-03-05T20:40:54.564Z,16.32
2023-03-05T20:43:21.109Z,16.33
2023-03-05T20:45:47.487Z,16.27
2023-03-05T20:48:13.890Z,16.33
2023-03-05T20:50:40.258Z,16.28
2023-03-05T20:53:07.255Z,16.33
2023-03-05T20:55:33.804Z,16.23
2023-03-05T20:58:00.281Z,16.28
2023-03-05T21:00:26.780Z,16.24
2023-03-05T21:02:53.356Z,16.21
2023-03-05T21:05:20.060Z,16.18
2023-03-05T21:07:46.504Z,16.22
2023-03-05T21:10:13.084Z,16.22
2023-03-05T21:12:39.672Z,16.17
2023-03-05T21:15:06.234Z,16.15
2023-03-05T21:17:32.562Z,16.20
2023-03-05T21:19:59.587Z,16.16
2023-03-05T21:22:26.027Z,16.17
2023-03-05T21:24:52.544Z,16.16
2023-03-05T21:27:19.349Z,16.08
2023-03-05T21:29:45.932Z,16.14
2023-03-05T21:32:12.390Z,16.13
2023-03-05T21:34:38.935Z,16.12
2023-03-05T21:37:05.421Z,16.07
2023-03-05T21:39:31.903Z,16.06
2023-03-05T21:41:58.200Z,16.06
2023-03-05T21:44:25.453Z,16.07
2023-03-05T21:46:51.947Z,16.03
2023-03-05T21:49:18.304Z,16.03
2023-03-05T21:51:44.653Z,15.99
2023-03-05T21:54:11.021Z,15.97
2023-03-05T21:56:37.660Z,15.99
2023-03-05T21:59:04.026Z,15.99
2023-03-05T22:01:30.458Z,16.00
2023-03-05T22:03:56.922Z,15.97
2023-03-05T22:06:23.695Z,15.99
2023-03-05T22:08:50.033Z,15.87
2023-03-05T22:11:16.429Z,15.97
2023-03-05T22:13:43.380Z,15.90
2023-03-05T22:16:09.921Z,15.89
2023-03-05T22:18:36.280Z,15.91
2023-03-05T22:21:02.821Z,15.87
2023-03-05T22:23:29.191Z,15.91
2023-03-05T22:25:55.563Z,15.86
2023-03-05T22:28:21.981Z,15.84
2023-03-05T22:30:48.363Z,15.83
2023-03-05T22:33:14.799Z,15.79
2023-03-05T22:35:41.255Z,15.81
2023-03-05T22:38:07.777Z,15.80
2023-03-05T22:40:34.163Z,15.82
2023-03-05T22:43:00.496Z,15.80
2023-03-05T22:45:27.065Z,15.76
2023-03-05T22:47:53.620Z,15.77
2023-03-05T22:50:20.180Z,15.75
2023-03-05T22:52:46.536Z,15.69
2023-03-05T22:55:13.160Z,15.72
2023-03-05T22:57:39.770Z,15.68
2023-03-05T23:00:06.138Z,15.69
2023-03-05T23:02:33.369Z,15.68
2023-03-05T23:04:59.780Z,15.71
2023-03-05T23:07:26.252Z,15.66
2023-03-05T23:09:52.587Z,15.68
2023-03-05T23:12:19.116Z,15.63
2023-03-05T23:14:45.790Z,15.67
2023-03-05T23:17:12.111Z,15.66
2023-03-05T23:19:39.688Z,15.58
2023-03-05T23:22:06.448Z,15.63
2023-03-05T23:24:32.892Z,15.62
2023-03-05T23:26:59.417Z,15.60
2023-03-05T23:29:26.135Z,15.59
2023-03-05T23:31:52.468Z,15.60
2023-03-05T23:34:18.806Z,15.55
2023-03-05T23:36:45.230Z,15.56
2023-03-05T23:39:11.865Z,15.54
2023-03-05T23:41:38.403Z,15.54
2023-03-05T23:44:05.082Z,15.55
2023-03-05T23:46:31.478Z,15.54
2023-03-05T23:48:58.126Z,15.52
2023-03-05T23:51:24.529Z,15.54
2023-03-05T23:53:50.982Z,15.54
2023-03-05T23:56:17.377Z,15.49
2023-03-05T23:58:43.765Z,15.51
